createdAt,value
2023-05-05T00:00:31.431Z,9.90
2023-05-05T00:02:59.962Z,9.80
2023-05-05T00:05:30.670Z,9.60
2023-05-05T00:07:59.078Z,9.70
2023-05-05T00:10:27.984Z,9.70
2023-05-05T00:12:56.503Z,9.60
2023-05-05T00:15:24.998Z,9.70
2023-05-05T00:17:53.523Z,9.80
2023-05-05T00:20:22.951Z,9.80
2023-05-05T00:22:52.782Z,9.80
2023-05-05T00:25:21.233Z,9.80
2023-05-05T00:27:49.619Z,9.70
2023-05-05T00:30:18.296Z,9.80
2023-05-05T00:32:49.121Z,9.80
2023-05-05T00:35:17.745Z,9.70
2023-05-05T00:37:46.351Z,9.80
2023-05-05T00:40:18.388Z,9.60
2023-05-05T00:42:48.300Z,9.70
2023-05-05T00:45:17.279Z,9.70
2023-05-05T00:47:49.587Z,9.70
2023-05-05T00:50:23.898Z,9.60
2023-05-05T00:52:55.106Z,9.50
2023-05-05T00:55:25.017Z,9.60
2023-05-05T00:57:53.688Z,9.60
2023-05-05T01:00:22.933Z,9.60
2023-05-05T01:02:51.958Z,9.50
2023-05-05T01:05:21.582Z,9.50
2023-05-05T01:08:02.852Z,9.40
2023-05-05T01:10:38.043Z,9.30
2023-05-05T01:13:17.764Z,9.30
2023-05-05T01:15:51.027Z,9.40
2023-05-05T01:18:24.806Z,9.30
2023-05-05T01:20:58.231Z,9.40
2023-05-05T01:23:55.155Z,9.30
2023-05-05T01:26:56.378Z,9.20
2023-05-05T01:29:42.555Z,9.30
2023-05-05T01:32:14.899Z,9.20
2023-05-05T01:34:46.419Z,9.20
2023-05-05T01:37:20.249Z,9.10
2023-05-05T01:39:52.888Z,9.10
2023-05-05T01:42:22.864Z,9.10
2023-05-05T01:44:53.668Z,9.10
2023-05-05T01:47:24.821Z,9.10
2023-05-05T01:49:53.763Z,8.90
2023-05-05T01:52:23.295Z,8.80
2023-05-05T01:54:52.188Z,8.80
2023-05-05T01:57:22.145Z,8.90
2023-05-05T01:59:51.677Z,8.90
2023-05-05T02:02:20.670Z,8.90
2023-05-05T02:04:51.159Z,8.80
2023-05-05T02:07:20.812Z,8.80
2023-05-05T02:09:49.688Z,8.90
2023-05-05T02:12:19.600Z,8.90
2023-05-05T02:14:48.582Z,8.90
2023-05-05T02:17:17.701Z,8.70
2023-05-05T02:19:47.311Z,8.90
2023-05-05T02:22:17.131Z,8.90
2023-05-05T02:24:46.104Z,8.80
2023-05-05T02:27:17.573Z,8.80
2023-05-05T02:29:49.074Z,8.80
2023-05-05T02:32:21.866Z,8.80
2023-05-05T02:34:51.085Z,8.60
2023-05-05T02:37:24.632Z,8.50
2023-05-05T02:39:58.874Z,8.50
2023-05-05T02:42:30.689Z,8.50
2023-05-05T02:45:01.089Z,8.60
2023-05-05T02:47:36.917Z,8.60
2023-05-05T02:50:06.944Z,8.60
2023-05-05T02:52:37.621Z,8.60
2023-05-05T02:55:07.940Z,8.60
2023-05-05T02:57:40.844Z,8.60
2023-05-05T03:00:14.488Z,8.60
2023-05-05T03:02:46.160Z,8.70
2023-05-05T03:05:20.224Z,8.60
2023-05-05T03:07:56.141Z,8.50
2023-05-05T03:10:29.092Z,8.30
2023-05-05T03:12:59.984Z,8.40
2023-05-05T03:15:33.448Z,8.40
2023-05-05T03:18:02.485Z,8.40
2023-05-05T03:20:31.235Z,8.30
2023-05-05T03:23:02.462Z,8.20
2023-05-05T03:25:49.552Z,8.20
2023-05-05T03:28:19.080Z,8.20
2023-05-05T03:30:47.622Z,8.30
2023-05-05T03:33:17.349Z,8.30
2023-05-05T03:35:45.946Z,8.30
2023-05-05T03:38:15.714Z,8.40
2023-05-05T03:40:44.927Z,8.30
2023-05-05T03:43:13.632Z,8.40
2023-05-05T03:45:42.165Z,8.40
2023-05-05T03:48:10.715Z,8.40
2023-05-05T03:50:39.135Z,8.40
2023-05-05T03:53:07.545Z,8.30
2023-05-05T03:55:37.343Z,8.30
2023-05-05T03:58:05.910Z,8.30
2023-05-05T04:00:34.436Z,8.30
2023-05-05T04:03:03.193Z,8.30
2023-05-05T04:05:31.757Z,8.30
2023-05-05T04:08:00.270Z,8.30
2023-05-05T04:10:28.929Z,8.30
2023-05-05T04:12:58.709Z,8.40
2023-05-05T04:15:27.177Z,8.30
2023-05-05T04:17:55.768Z,8.40
2023-05-05T04:20:24.264Z,8.40
2023-05-05T04:22:52.944Z,8.40
2023-05-05T04:25:21.374Z,8.40
2023-05-05T04:27:49.756Z,8.40
2023-05-05T04:30:19.689Z,8.50
2023-05-05T04:32:48.147Z,8.20
2023-05-05T04:35:16.728Z,8.30
2023-05-05T04:37:45.130Z,8.40
2023-05-05T04:40:13.985Z,8.50
2023-05-05T04:42:42.500Z,8.60
2023-05-05T04:45:11.804Z,8.60
2023-05-05T04:47:42.115Z,8.60
2023-05-05T04:50:12.104Z,8.50
2023-05-05T04:52:40.756Z,8.60
2023-05-05T04:55:11.552Z,8.80
2023-05-05T04:57:40.152Z,8.80
2023-05-05T05:00:10.058Z,8.80
2023-05-05T05:02:38.844Z,9.10
2023-05-05T05:05:09.832Z,9.20
2023-05-05T05:07:38.337Z,9.30
2023-05-05T05:10:08.118Z,9.40
2023-05-05T05:12:36.822Z,9.60
2023-05-05T05:15:06.211Z,9.70
2023-05-05T05:17:34.633Z,9.80
2023-05-05T05:20:05.024Z,9.90
2023-05-05T05:22:38.254Z,10.10
2023-05-05T05:25:07.464Z,10.30
2023-05-05T05:27:35.963Z,10.50
2023-05-05T05:30:04.814Z,10.60
2023-05-05T05:32:33.403Z,10.70
2023-05-05T05:35:01.884Z,10.90
2023-05-05T05:37:31.074Z,11.20
2023-05-05T05:40:00.970Z,11.70
2023-05-05T05:42:29.387Z,12.50
2023-05-05T05:44:58.691Z,13.30
2023-05-05T05:47:28.033Z,14.00
2023-05-05T05:49:56.631Z,14.70
2023-05-05T05:52:25.116Z,15.30
2023-05-05T05:54:53.616Z,15.90
2023-05-05T05:57:24.555Z,16.40
2023-05-05T05:59:53.934Z,16.80
2023-05-05T06:02:22.410Z,17.20
2023-05-05T06:04:50.839Z,17.50
2023-05-05T06:07:19.469Z,17.80
2023-05-05T06:09:48.020Z,18.10
2023-05-05T06:12:16.446Z,18.50
2023-05-05T06:14:46.393Z,18.80
2023-05-05T06:17:14.862Z,19.00
2023-05-05T06:19:43.425Z,19.20
2023-05-05T06:22:11.879Z,19.60
2023-05-05T06:24:40.314Z,20.00
2023-05-05T06:27:08.716Z,20.50
2023-05-05T06:29:37.156Z,20.70
2023-05-05T06:32:08.397Z,20.80
2023-05-05T06:34:36.944Z,20.80
2023-05-05T06:37:05.437Z,20.70
2023-05-05T06:39:33.853Z,20.60
2023-05-05T06:42:04.168Z,20.60
2023-05-05T06:44:34.598Z,20.50
2023-05-05T06:47:03.110Z,20.40
2023-05-05T06:49:33.026Z,20.40
2023-05-05T06:52:01.662Z,20.60
2023-05-05T06:54:30.090Z,20.60
2023-05-05T06:56:59.686Z,20.60
2023-05-05T06:59:28.418Z,20.60
2023-05-05T07:01:56.925Z,20.70
2023-05-05T07:04:25.437Z,20.70
2023-05-05T07:06:55.551Z,20.80
2023-05-05T07:09:24.059Z,21.00
2023-05-05T07:11:52.498Z,21.20
2023-05-05T07:14:23.603Z,21.50
2023-05-05T07:16:52.732Z,21.70
2023-05-05T07:19:21.480Z,22.10
2023-05-05T07:21:49.948Z,22.60
2023-05-05T07:24:19.738Z,22.70
2023-05-05T07:26:48.282Z,22.70
2023-05-05T07:29:16.795Z,22.70
2023-05-05T07:31:45.932Z,22.90
2023-05-05T07:34:14.358Z,22.90
2023-05-05T07:36:42.871Z,22.80
2023-05-05T07:39:11.575Z,22.80
2023-05-05T07:41:41.538Z,22.80
2023-05-05T07:44:09.978Z,22.80
2023-05-05T07:46:38.658Z,22.90
2023-05-05T07:49:07.096Z,22.90
2023-05-05T07:51:35.536Z,22.80
2023-05-05T07:54:03.996Z,22.70
2023-05-05T07:56:32.470Z,22.70
2023-05-05T07:59:02.295Z,22.70
2023-05-05T08:01:30.740Z,22.70
2023-05-05T08:03:59.382Z,22.90
2023-05-05T08:06:28.564Z,23.10
2023-05-05T08:08:57.300Z,23.00
2023-05-05T08:11:28.997Z,22.90
2023-05-05T08:13:58.042Z,22.90
2023-05-05T08:16:28.167Z,23.00
2023-05-05T08:18:56.734Z,22.90
2023-05-05T08:21:25.218Z,22.70
2023-05-05T08:23:53.571Z,22.50
2023-05-05T08:26:22.872Z,22.50
2023-05-05T08:28:55.063Z,22.50
2023-05-05T08:31:23.627Z,22.40
2023-05-05T08:33:53.437Z,22.40
2023-05-05T08:36:21.894Z,22.40
2023-05-05T08:38:51.352Z,22.40
2023-05-05T08:41:20.500Z,22.40
2023-05-05T08:43:49.344Z,22.40
2023-05-05T08:46:18.354Z,22.50
2023-05-05T08:48:47.009Z,22.40
2023-05-05T08:51:19.518Z,22.40
2023-05-05T08:53:58.287Z,22.40
2023-05-05T08:56:28.496Z,22.30
2023-05-05T08:58:58.021Z,22.30
2023-05-05T09:01:26.877Z,22.30
2023-05-05T09:03:55.301Z,22.40
2023-05-05T09:06:26.878Z,22.40
2023-05-05T09:08:57.618Z,22.40
2023-05-05T09:11:28.102Z,22.40
2023-05-05T09:13:56.995Z,22.30
2023-05-05T09:16:25.447Z,22.30
2023-05-05T09:19:03.330Z,22.40
2023-05-05T09:21:33.433Z,22.30
2023-05-05T09:24:11.521Z,22.30
2023-05-05T09:26:42.177Z,22.30
2023-05-05T09:29:10.842Z,22.30
2023-05-05T09:31:39.432Z,22.40
2023-05-05T09:34:17.571Z,22.40
2023-05-05T09:36:49.396Z,22.40
2023-05-05T09:39:20.274Z,22.40
2023-05-05T09:41:48.925Z,22.30
2023-05-05T09:44:17.398Z,22.40
2023-05-05T09:46:52.392Z,22.30
2023-05-05T09:49:23.510Z,22.40
2023-05-05T09:51:53.801Z,22.50
2023-05-05T09:54:30.325Z,22.50
2023-05-05T09:56:59.146Z,22.50
2023-05-05T09:59:27.816Z,22.50
2023-05-05T10:02:14.387Z,22.50
2023-05-05T10:04:42.969Z,22.50
2023-05-05T10:07:24.159Z,22.40
2023-05-05T10:09:54.481Z,22.30
2023-05-05T10:12:23.054Z,22.20
2023-05-05T10:14:52.665Z,22.10
2023-05-05T10:17:23.926Z,21.90
2023-05-05T10:19:54.138Z,21.90
2023-05-05T10:22:24.788Z,22.00
2023-05-05T10:24:57.514Z,22.20
2023-05-05T10:27:27.833Z,22.30
2023-05-05T10:30:01.826Z,22.40
2023-05-05T10:32:56.956Z,22.40
2023-05-05T10:35:23.496Z,22.40
2023-05-05T10:37:53.918Z,22.40
2023-05-05T10:40:23.600Z,22.40
2023-05-05T10:42:52.434Z,22.50
2023-05-05T10:45:21.094Z,22.50
2023-05-05T10:47:50.287Z,22.50
2023-05-05T10:50:35.224Z,22.50
2023-05-05T10:53:14.094Z,22.40
2023-05-05T10:55:47.841Z,22.40
2023-05-05T10:58:43.774Z,22.50
2023-05-05T11:01:31.050Z,22.60
2023-05-05T11:04:17.956Z,22.70
2023-05-05T11:07:24.597Z,22.80
2023-05-05T11:09:58.645Z,22.80
2023-05-05T11:12:27.202Z,22.80
2023-05-05T11:15:37.799Z,22.80
2023-05-05T11:18:08.413Z,23.00
2023-05-05T11:21:04.991Z,23.00
2023-05-05T11:23:35.577Z,23.10
2023-05-05T11:26:05.496Z,23.00
2023-05-05T11:28:34.058Z,22.90
2023-05-05T11:31:21.154Z,22.90
2023-05-05T11:33:49.850Z,22.90
2023-05-05T11:36:18.927Z,22.90
2023-05-05T11:39:03.529Z,22.90
2023-05-05T11:42:10.069Z,23.00
2023-05-05T11:44:39.575Z,23.00
2023-05-05T11:47:28.400Z,23.00
2023-05-05T11:49:57.576Z,22.90
2023-05-05T11:52:28.124Z,22.90
2023-05-05T11:55:01.861Z,23.00
2023-05-05T11:57:32.055Z,23.00
2023-05-05T12:00:02.964Z,23.20
2023-05-05T12:02:31.740Z,23.20
2023-05-05T12:05:01.069Z,23.20
2023-05-05T12:07:30.921Z,23.30
2023-05-05T12:09:59.475Z,23.30
2023-05-05T12:12:40.192Z,23.40
2023-05-05T12:15:09.621Z,23.30
2023-05-05T12:17:44.907Z,23.30
2023-05-05T12:20:14.192Z,23.30
2023-05-05T12:22:43.752Z,23.30
2023-05-05T12:25:12.729Z,23.40
2023-05-05T12:27:42.829Z,23.40
2023-05-05T12:30:17.130Z,23.40
2023-05-05T12:32:46.599Z,23.50
2023-05-05T12:35:16.026Z,23.50
2023-05-05T12:37:45.470Z,23.50
2023-05-05T12:40:48.534Z,23.50
2023-05-05T12:43:29.971Z,23.60
2023-05-05T12:46:03.520Z,23.60
2023-05-05T12:48:32.589Z,23.70
2023-05-05T12:51:18.192Z,23.70
2023-05-05T12:53:47.267Z,23.70
2023-05-05T12:56:32.126Z,23.60
2023-05-05T12:59:02.752Z,23.60
2023-05-05T13:01:31.941Z,23.60
2023-05-05T13:04:12.051Z,23.70
2023-05-05T13:06:41.403Z,23.70
2023-05-05T13:09:11.131Z,23.80
2023-05-05T13:11:40.111Z,23.80
2023-05-05T13:14:09.927Z,23.70
2023-05-05T13:16:38.469Z,23.70
2023-05-05T13:19:06.896Z,23.70
2023-05-05T13:21:35.348Z,23.90
2023-05-05T13:26:35.685Z,23.80
2023-05-05T13:29:04.286Z,23.90
2023-05-05T13:31:34.323Z,23.90
2023-05-05T13:34:02.941Z,23.90
2023-05-05T13:36:31.408Z,23.90
2023-05-05T13:38:59.871Z,23.90
2023-05-05T13:41:28.379Z,23.90
2023-05-05T13:43:57.316Z,23.90
2023-05-05T13:46:25.995Z,23.90
2023-05-05T13:48:56.919Z,23.90
2023-05-05T13:51:25.455Z,24.00
2023-05-05T13:53:53.998Z,24.00
2023-05-05T13:56:26.034Z,24.00
2023-05-05T13:58:54.569Z,24.10
2023-05-05T14:01:23.162Z,24.00
2023-05-05T14:03:51.708Z,24.00
2023-05-05T14:06:21.649Z,23.90
2023-05-05T14:08:50.219Z,23.90
2023-05-05T14:11:20.778Z,23.90
2023-05-05T14:13:49.700Z,23.90
2023-05-05T14:16:18.168Z,23.90
2023-05-05T14:18:46.613Z,24.00
2023-05-05T14:21:15.054Z,24.00
2023-05-05T14:23:45.011Z,24.00
2023-05-05T14:26:13.551Z,24.00
2023-05-05T14:28:42.311Z,24.00
2023-05-05T14:31:11.269Z,23.90
2023-05-05T14:33:39.724Z,23.90
2023-05-05T14:36:08.753Z,23.90
2023-05-05T14:38:37.364Z,23.90
2023-05-05T14:41:07.346Z,23.90
2023-05-05T14:43:36.826Z,24.00
2023-05-05T14:46:07.086Z,23.90
2023-05-05T14:48:35.689Z,23.90
2023-05-05T14:51:04.759Z,24.00
2023-05-05T14:53:33.514Z,24.00
2023-05-05T14:56:02.354Z,24.00
2023-05-05T14:58:32.121Z,24.00
2023-05-05T15:01:00.901Z,23.90
2023-05-05T15:03:29.816Z,23.90
2023-05-05T15:05:58.352Z,23.80
2023-05-05T15:08:26.801Z,23.80
2023-05-05T15:10:55.220Z,23.60
2023-05-05T15:13:23.667Z,23.50
2023-05-05T15:15:53.607Z,23.50
2023-05-05T15:18:22.148Z,23.50
2023-05-05T15:20:50.904Z,23.50
2023-05-05T15:23:19.483Z,23.50
2023-05-05T15:25:47.901Z,23.50
2023-05-05T15:28:17.282Z,23.50
2023-05-05T15:30:45.841Z,23.50
2023-05-05T15:33:15.642Z,23.50
2023-05-05T15:35:44.225Z,23.50
2023-05-05T15:38:12.644Z,23.50
2023-05-05T15:40:41.165Z,23.40
2023-05-05T15:43:09.598Z,23.40
2023-05-05T15:45:38.617Z,23.30
2023-05-05T15:48:07.732Z,23.40
2023-05-05T15:50:37.556Z,23.30
2023-05-05T15:53:06.028Z,23.30
2023-05-05T15:55:34.528Z,23.20
2023-05-05T15:58:03.191Z,23.20
2023-05-05T16:00:32.414Z,23.20
2023-05-05T16:03:00.890Z,23.20
2023-05-05T16:05:29.442Z,23.20
2023-05-05T16:07:59.277Z,23.10
2023-05-05T16:10:27.762Z,23.10
2023-05-05T16:12:57.546Z,23.10
2023-05-05T16:15:26.071Z,23.10
2023-05-05T16:17:54.532Z,23.00
2023-05-05T16:20:22.969Z,23.00
2023-05-05T16:22:51.520Z,23.10
2023-05-05T16:25:23.297Z,23.00
2023-05-05T16:27:53.146Z,23.00
2023-05-05T16:30:21.753Z,22.90
2023-05-05T16:32:51.840Z,22.80
2023-05-05T16:35:20.583Z,22.80
2023-05-05T16:37:49.072Z,22.80
2023-05-05T16:40:17.645Z,22.70
2023-05-05T16:42:47.377Z,22.70
2023-05-05T16:45:15.877Z,22.70
2023-05-05T16:47:44.365Z,22.70
2023-05-05T16:50:12.943Z,22.60
2023-05-05T16:52:41.415Z,22.50
2023-05-05T16:55:11.120Z,22.50
2023-05-05T16:57:39.736Z,22.50
2023-05-05T17:00:12.166Z,22.50
2023-05-05T17:02:40.647Z,22.40
2023-05-05T17:05:10.249Z,22.40
2023-05-05T17:07:38.926Z,22.30
2023-05-05T17:10:08.794Z,22.20
2023-05-05T17:12:37.333Z,22.10
2023-05-05T17:15:06.884Z,22.10
2023-05-05T17:17:36.864Z,22.00
2023-05-05T17:20:06.093Z,21.90
2023-05-05T17:22:34.608Z,21.90
2023-05-05T17:25:03.318Z,21.90
2023-05-05T17:27:31.926Z,21.80
2023-05-05T17:30:00.370Z,21.70
2023-05-05T17:32:28.864Z,21.60
2023-05-05T17:34:58.700Z,21.40
2023-05-05T17:37:27.397Z,21.40
2023-05-05T17:39:55.896Z,21.30
2023-05-05T17:42:26.997Z,21.10
2023-05-05T17:44:55.455Z,21.10
2023-05-05T17:47:24.310Z,21.00
2023-05-05T17:49:54.587Z,20.90
2023-05-05T17:52:24.884Z,20.80
2023-05-05T17:54:53.553Z,20.70
2023-05-05T17:57:22.813Z,20.70
2023-05-05T17:59:53.531Z,20.60
2023-05-05T18:02:22.262Z,20.50
2023-05-05T18:04:50.782Z,20.50
2023-05-05T18:07:19.407Z,20.40
2023-05-05T18:09:49.268Z,20.30
2023-05-05T18:12:17.786Z,20.30
2023-05-05T18:14:46.407Z,20.20
2023-05-05T18:17:14.886Z,20.20
2023-05-05T18:19:46.644Z,20.10
2023-05-05T18:22:17.045Z,20.00
2023-05-05T18:24:47.118Z,19.90
2023-05-05T18:27:17.210Z,19.80
2023-05-05T18:29:45.694Z,19.70
2023-05-05T18:32:14.177Z,19.60
2023-05-05T18:34:42.702Z,19.50
2023-05-05T18:37:11.166Z,19.40
2023-05-05T18:39:39.605Z,19.20
2023-05-05T18:42:08.858Z,19.10
2023-05-05T18:44:38.822Z,18.90
2023-05-05T18:47:07.583Z,18.90
2023-05-05T18:49:38.493Z,18.70
2023-05-05T18:52:07.214Z,18.60
2023-05-05T18:54:37.830Z,18.50
2023-05-05T18:57:06.782Z,18.40
2023-05-05T18:59:35.385Z,18.30
2023-05-05T19:02:05.280Z,18.20
2023-05-05T19:04:37.349Z,18.10
2023-05-05T19:07:06.205Z,17.90
2023-05-05T19:09:34.990Z,17.90
2023-05-05T19:12:03.825Z,17.80
2023-05-05T19:14:32.374Z,17.80
2023-05-05T19:17:01.499Z,17.70
2023-05-05T19:19:31.520Z,17.70
2023-05-05T19:22:02.186Z,17.60
2023-05-05T19:24:32.153Z,17.50
2023-05-05T19:27:02.135Z,17.50
2023-05-05T19:29:32.121Z,17.40
2023-05-05T19:32:00.617Z,17.40
2023-05-05T19:34:29.145Z,17.30
2023-05-05T19:36:58.963Z,17.30
2023-05-05T19:39:37.507Z,17.30
2023-05-05T19:42:16.831Z,17.30
2023-05-05T19:47:53.547Z,17.00
2023-05-05T19:50:22.240Z,17.00
2023-05-05T19:52:52.173Z,16.90
2023-05-05T19:55:21.755Z,16.90
2023-05-05T19:57:50.212Z,16.80
2023-05-05T20:00:19.823Z,16.70
2023-05-05T20:02:49.032Z,16.70
2023-05-05T20:05:17.892Z,16.70
2023-05-05T20:07:46.854Z,16.60
2023-05-05T20:10:16.766Z,16.60
2023-05-05T20:12:48.298Z,16.50
2023-05-05T20:15:18.904Z,16.50
2023-05-05T20:17:48.377Z,16.30
2023-05-05T20:20:18.735Z,16.30
2023-05-05T20:22:47.657Z,16.20
2023-05-05T20:25:17.614Z,16.20
2023-05-05T20:27:46.485Z,16.20
2023-05-05T20:30:15.161Z,16.20
2023-05-05T20:32:43.725Z,16.20
2023-05-05T20:35:12.857Z,16.20
2023-05-05T20:37:41.454Z,16.10
2023-05-05T20:40:11.470Z,16.10
2023-05-05T20:42:41.665Z,16.00
2023-05-05T20:45:11.825Z,15.90
2023-05-05T20:47:40.432Z,15.80
2023-05-05T20:50:09.973Z,15.80
2023-05-05T20:52:38.627Z,15.70
2023-05-05T20:55:07.773Z,15.50
2023-05-05T20:57:36.330Z,15.50
2023-05-05T21:00:07.996Z,15.40
2023-05-05T21:02:36.685Z,15.40
2023-05-05T21:05:07.666Z,15.40
2023-05-05T21:07:36.264Z,15.50
2023-05-05T21:10:05.839Z,15.50
2023-05-05T21:12:35.372Z,15.50
2023-05-05T21:15:05.626Z,15.50
2023-05-05T21:17:34.108Z,15.50
2023-05-05T21:20:02.623Z,15.40
2023-05-05T21:22:31.092Z,15.40
2023-05-05T21:25:10.893Z,15.30
2023-05-05T21:27:39.363Z,15.10
2023-05-05T21:30:11.363Z,14.90
2023-05-05T21:32:40.066Z,14.80
2023-05-05T21:35:10.186Z,14.80
2023-05-05T21:37:39.464Z,14.90
2023-05-05T21:40:11.086Z,14.90
2023-05-05T21:42:39.974Z,14.90
2023-05-05T21:45:11.820Z,14.90
2023-05-05T21:47:40.501Z,15.00
2023-05-05T21:50:10.272Z,14.90
2023-05-05T21:52:39.077Z,14.90
2023-05-05T21:55:10.614Z,15.00
2023-05-05T21:57:39.069Z,14.90
2023-05-05T22:00:10.590Z,14.90
2023-05-05T22:02:39.673Z,14.90
2023-05-05T22:05:09.348Z,14.90
2023-05-05T22:07:37.915Z,14.80
2023-05-05T22:10:07.485Z,14.80
2023-05-05T22:12:36.279Z,14.80
2023-05-05T22:15:05.169Z,14.80
2023-05-05T22:17:35.071Z,14.80
2023-05-05T22:20:05.042Z,14.80
2023-05-05T22:22:33.483Z,14.60
2023-05-05T22:25:01.930Z,14.50
2023-05-05T22:27:30.753Z,14.40
2023-05-05T22:29:59.420Z,14.40
2023-05-05T22:32:28.063Z,14.40
2023-05-05T22:34:57.901Z,14.30
2023-05-05T22:37:26.740Z,14.30
2023-05-05T22:39:55.177Z,14.20
2023-05-05T22:42:23.744Z,14.30
2023-05-05T22:44:52.785Z,14.30
2023-05-05T22:47:21.616Z,14.20
2023-05-05T22:49:50.065Z,14.20
2023-05-05T22:52:19.928Z,14.00
2023-05-05T22:54:48.461Z,13.70
2023-05-05T22:57:16.991Z,13.70
2023-05-05T22:59:45.426Z,13.80
2023-05-05T23:02:13.895Z,13.80
2023-05-05T23:04:42.477Z,13.90
2023-05-05T23:07:11.918Z,13.90
2023-05-05T23:09:41.851Z,13.80
2023-05-05T23:12:10.360Z,13.70
2023-05-05T23:14:38.804Z,13.60
2023-05-05T23:17:08.131Z,13.60
2023-05-05T23:19:36.599Z,13.60
2023-05-05T23:22:05.393Z,13.60
2023-05-05T23:24:33.892Z,13.70
2023-05-05T23:27:03.779Z,13.70
2023-05-05T23:29:32.629Z,13.70
2023-05-05T23:32:01.041Z,13.50
2023-05-05T23:34:29.562Z,13.30
2023-05-05T23:36:58.023Z,13.40
2023-05-05T23:39:26.633Z,13.30
2023-05-05T23:41:55.137Z,13.30
2023-05-05T23:44:25.162Z,13.20
2023-05-05T23:46:53.652Z,13.20
2023-05-05T23:49:22.701Z,13.30
2023-05-05T23:51:51.242Z,13.30
2023-05-05T23:54:19.693Z,13.20
2023-05-05T23:56:48.587Z,13.10
2023-05-05T23:59:17.053Z,13.00
